Latest Coastal Weather Observations for Gannett Cay

IDQ60701

Issued at 12:35 pm EST Thursday 24 April 2014 (issued every 10 minutes, with the page automatically refreshed every 10 minutes)

About coastal observations | Map of coastal stations | Coastal observations for QLD | Marine services | Other Formats
Station Details ID: 200831 Name: GANNET CAY Lat: -21.98 Lon: 152.47 Height: 2.3 m
Data from the previous 72 hours. | See also: Recent months for locations in Queensland
Date/Time
EST
Temp

°C
Wind Pressure Rain
since 9am
mm
Weather Cloud Vis
km
Sea
Height
m
Swell
Dir
 
Speed
knots
Gust
knots
hPa Trend Height
m
Period
s
Dir
24/12:30pm 24.7 NNW 0 0 1012.8 - - - - - - - - -
24/12:26pm 25.0 NNE 0 0 1012.9 - - - - - - - - -
24/12:00pm 24.7 NE 4 7 1012.8 - - - - - - - - -
24/11:30am 24.7 NE 12 14 1012.3 - - - - - - - - -
24/11:26am 24.3 NE 13 - 1012.4 - - - - - - - - -
24/11:00am 24.0 NE 16 19 1012.7 - - - - - - - - -
24/10:30am 24.3 NE 11 12 1014.2 - - - - - - - - -
24/10:26am 24.4 ENE 11 - 1014.5 - - - - - - - - -
24/10:00am 24.2 NE 19 22 1014.3 - - - - - - - - -
24/09:30am 23.9 NE 23 25 1013.7 - - - - - - - - -
24/09:26am 24.0 NE 23 - 1013.9 - - - - - - - - -
24/09:25am 23.9 NE 23 25 1013.9 - - - - - - - - -
24/09:00am 23.5 E 14 16 1015.3 - - - - - - - - -
24/08:30am 23.3 E 12 13 1015.7 - - - - - - - - -
24/08:26am 23.2 ENE 12 - 1015.5 - - - - - - - - -
24/08:00am 23.7 NE 12 14 1015.4 - - - - - - - - -
24/07:30am 23.6 NE 1 2 1015.4 - - - - - - - - -
24/07:26am 23.8 NE 1 - 1015.5 - - - - - - - - -
24/07:00am 24.2 NE 1 3 1015.3 - - - - - - - - -
24/06:30am 24.1 CALM 0 2 1014.6 - - - - - - - - -
24/06:26am 24.1 CALM 0 - 1014.6 - - - - - - - - -
24/06:00am 24.9 E 10 12 1014.3 - - - - - - - - -
24/05:30am 25.0 E 10 13 1013.5 - - - - - - - - -
24/05:26am 24.9 E 10 - 1013.5 - - - - - - - - -
24/05:00am 24.9 E 10 11 1013.0 - - - - - - - - -
24/04:30am 24.8 E 10 12 1013.0 - - - - - - - - -
24/04:26am 24.8 E 10 - 1013.3 - - - - - - - - -
24/04:00am 24.6 ESE 12 15 1012.8 - - - - - - - - -
24/03:30am 24.5 SE 13 14 1012.9 - - - - - - - - -
24/03:26am 24.5 SE 12 - 1013.1 - - - - - - - - -
24/03:00am 24.3 E 14 16 1012.4 - - - - - - - - -
24/02:30am 24.4 E 14 16 1012.8 - - - - - - - - -
24/02:26am 24.4 E 14 - 1013.0 - - - - - - - - -
24/02:00am 24.6 E 15 17 1013.5 - - - - - - - - -
24/01:30am 24.5 E 15 17 1013.8 - - - - - - - - -
24/01:26am 24.6 E 15 - 1013.9 - - - - - - - - -
24/01:00am 24.5 E 15 16 1014.1 - - - - - - - - -
24/12:30am 24.3 E 14 16 1014.4 - - - - - - - - -
24/12:26am 24.4 E 15 - 1014.5 - - - - - - - - -
24/12:00am 24.4 E 14 16 1014.6 - - - - - - - - -
 
Date/Time
EST
Temp

°C
Wind Pressure Rain
since 9am
mm
Weather Cloud Vis
km
Sea
Height
m
Swell
Dir
 
Speed
knots
Gust
knots
hPa Trend Height
m
Period
s
Dir
23/11:30pm 24.3 E 12 14 1015.3 - - - - - - - - -
23/11:26pm 24.3 E 13 - 1015.4 - - - - - - - - -
23/11:00pm 24.1 E 13 14 1015.3 - - - - - - - - -
23/10:30pm 23.9 ESE 11 13 1015.6 - - - - - - - - -
23/10:26pm 24.0 ESE 11 - 1015.8 - - - - - - - - -
23/10:00pm 24.2 E 11 13 1015.9 - - - - - - - - -
23/09:30pm 24.1 E 15 18 1015.6 - - - - - - - - -
23/09:26pm 23.9 E 15 - 1015.7 - - - - - - - - -
23/09:00pm 23.3 E 18 20 1015.1 - - - - - - - - -
23/08:30pm 23.0 ESE 18 21 1015.4 - - - - - - - - -
23/08:26pm 23.0 SE 18 - 1015.6 - - - - - - - - -
23/08:00pm 22.6 SSE 18 21 1015.6 - - - - - - - - -
23/07:30pm 22.6 SSE 15 17 1015.9 - - - - - - - - -
23/07:26pm 22.5 SSE 14 - 1016.1 - - - - - - - - -
23/07:00pm 22.5 SE 14 16 1015.8 - - - - - - - - -
23/06:30pm 22.3 SE 13 16 1015.1 - - - - - - - - -
23/06:26pm 22.1 SE 13 - 1015.1 - - - - - - - - -
23/06:00pm 22.1 ESE 14 18 1014.7 - - - - - - - - -
23/05:30pm 22.6 E 15 19 1014.3 - - - - - - - - -
23/05:26pm 22.4 E 14 - 1014.3 - - - - - - - - -
23/05:00pm 22.8 E 4 17 1013.9 - - - - - - - - -
23/04:30pm 23.2 E 19 22 1013.4 - - - - - - - - -
23/04:26pm 23.3 E 18 - 1013.5 - - - - - - - - -
23/04:00pm 23.0 ENE 25 29 1012.7 - - - - - - - - -
23/03:30pm 23.1 ENE 23 25 1012.8 - - - - - - - - -
23/03:26pm 22.6 ENE 23 - 1012.8 - - - - - - - - -
23/03:00pm 21.1 ENE 23 26 1012.9 - - - - - - - - -
23/02:30pm 23.9 ENE 22 27 1013.0 - - - - - - - - -
23/02:26pm 24.3 ENE 21 - 1013.0 - - - - - - - - -
23/02:00pm 25.5 E 18 22 1013.0 - - - - - - - - -
23/01:30pm 25.9 E 17 21 1013.3 - - - - - - - - -
23/01:26pm 26.2 E 18 - 1013.5 - - - - - - - - -
23/01:00pm 26.3 E 18 20 1013.8 - - - - - - - - -
23/12:30pm 26.2 E 18 20 1014.3 - - - - - - - - -
23/12:26pm 26.3 E 18 - 1014.5 - - - - - - - - -
23/12:00pm 26.3 E 19 22 1014.5 - - - - - - - - -
23/11:30am 26.4 E 20 23 1014.8 - - - - - - - - -
23/11:26am 26.4 E 20 - 1014.8 - - - - - - - - -
23/11:00am 26.4 E 20 23 1015.2 - - - - - - - - -
23/10:30am 26.3 E 20 23 1015.7 - - - - - - - - -
23/10:26am 26.4 E 20 - 1015.9 - - - - - - - - -
23/10:00am 26.3 E 21 23 1015.9 - - - - - - - - -
23/09:30am 26.2 E 22 25 1015.8 - - - - - - - - -
23/09:26am 26.1 E 22 - 1015.7 - - - - - - - - -
23/09:00am 26.0 E 21 25 1015.2 - - - - - - - - -
23/08:30am 26.1 E 22 26 1015.4 - - - - - - - - -
23/08:26am 26.0 E 21 - 1015.4 - - - - - - - - -
23/08:00am 25.8 E 20 23 1015.9 - - - - - - - - -
23/07:30am 25.8 E 19 21 1015.9 - - - - - - - - -
23/07:26am 25.7 E 19 - 1016.0 - - - - - - - - -
23/07:00am 25.2 E 16 18 1015.9 - - - - - - - - -
23/06:30am 25.2 E 17 19 1015.7 - - - - - - - - -
23/06:26am 25.1 E 18 - 1015.8 - - - - - - - - -
23/06:00am 25.1 E 19 22 1015.3 - - - - - - - - -
23/05:30am 24.9 E 20 23 1015.2 - - - - - - - - -
23/05:26am 24.9 ENE 21 - 1015.3 - - - - - - - - -
23/05:00am 25.7 E 18 21 1014.8 - - - - - - - - -
23/04:30am 25.3 E 18 21 1015.0 - - - - - - - - -
23/04:26am 25.2 E 19 - 1015.0 - - - - - - - - -
23/04:00am 25.1 E 17 20 1014.4 - - - - - - - - -
23/03:30am 24.7 E 19 21 1014.5 - - - - - - - - -
23/03:26am 24.8 E 19 - 1014.6 - - - - - - - - -
23/03:00am 24.7 E 19 22 1015.3 - - - - - - - - -
23/02:30am 24.7 E 18 22 1015.5 - - - - - - - - -
23/02:26am 24.6 E 18 - 1015.6 - - - - - - - - -
23/02:00am 24.5 E 20 23 1015.6 - - - - - - - - -
23/01:30am 24.5 ENE 19 25 1015.5 - - - - - - - - -
23/01:26am 24.9 E 18 - 1015.6 - - - - - - - - -
23/01:00am 25.5 E 19 21 1015.8 - - - - - - - - -
23/12:30am 25.6 E 20 23 1015.9 - - - - - - - - -
23/12:26am 25.6 E 19 - 1016.1 - - - - - - - - -
23/12:00am 25.6 E 19 22 1016.2 - - - - - - - - -
 
Date/Time
EST
Temp

°C
Wind Pressure Rain
since 9am
mm
Weather Cloud Vis
km
Sea
Height
m
Swell
Dir
 
Speed
knots
Gust
knots
hPa Trend Height
m
Period
s
Dir
22/11:30pm 25.6 E 19 21 1016.3 - - - - - - - - -
22/11:26pm 25.5 E 19 - 1016.5 - - - - - - - - -
22/11:00pm 25.6 E 18 20 1016.8 - - - - - - - - -
22/10:30pm 25.7 E 17 20 1016.7 - - - - - - - - -
22/10:26pm 25.6 E 18 - 1016.8 - - - - - - - - -
22/10:00pm 25.6 E 20 22 1016.4 - - - - - - - - -
22/09:30pm 25.6 E 20 22 1016.6 - - - - - - - - -
22/09:26pm 25.5 E 19 - 1016.7 - - - - - - - - -
22/09:00pm 25.4 ESE 18 21 1016.6 - - - - - - - - -
22/08:30pm 25.2 E 20 23 1016.7 - - - - - - - - -
22/08:26pm 25.4 E 21 - 1016.8 - - - - - - - - -
22/08:00pm 25.4 ESE 19 23 1016.7 - - - - - - - - -
22/07:30pm 25.7 ESE 18 21 1016.4 - - - - - - - - -
22/07:26pm 25.6 ESE 18 - 1016.6 - - - - - - - - -
22/07:00pm 25.6 E 18 21 1016.3 - - - - - - - - -
22/06:30pm 25.6 ESE 17 19 1016.4 - - - - - - - - -
22/06:26pm 25.7 ESE 18 - 1016.5 - - - - - - - - -
22/06:00pm 25.2 ESE 18 21 1016.4 - - - - - - - - -
22/05:30pm 25.2 SE 17 19 1016.2 - - - - - - - - -
22/05:26pm 25.1 SE 17 - 1016.3 - - - - - - - - -
22/05:00pm 25.3 ESE 19 20 1015.9 - - - - - - - - -
22/04:30pm 25.5 ESE 17 19 1016.0 - - - - - - - - -
22/04:26pm 25.5 ESE 17 - 1016.0 - - - - - - - - -
22/04:00pm 25.6 ESE 17 20 1015.9 - - - - - - - - -
22/03:30pm 25.6 ESE 16 19 1015.9 - - - - - - - - -
22/03:26pm 25.7 ESE 16 - 1015.9 - - - - - - - - -
22/03:00pm 25.7 ESE 17 19 1015.9 - - - - - - - - -
22/02:30pm 25.8 ESE 17 20 1015.6 - - - - - - - - -
22/02:26pm 25.9 ESE 16 - 1015.8 - - - - - - - - -
22/02:00pm 25.8 ESE 16 19 1015.9 - - - - - - - - -
22/01:30pm 25.9 ESE 17 19 1016.1 - - - - - - - - -
22/01:26pm 25.9 ESE 16 - 1016.1 - - - - - - - - -
22/01:00pm 25.9 ESE 17 19 1016.2 - - - - - - - - -
22/12:30pm 25.8 ESE 17 19 1016.6 - - - - - - - - -
22/12:26pm 25.6 ESE 17 - 1016.7 - - - - - - - - -
22/12:00pm 25.7 ESE 17 19 1017.1 - - - - - - - - -
22/11:30am 25.8 ESE 17 19 1017.5 - - - - - - - - -
22/11:26am 25.7 ESE 17 - 1017.7 - - - - - - - - -
22/11:00am 25.8 ESE 16 18 1018.0 - - - - - - - - -
22/10:30am 25.7 ESE 16 19 1018.4 - - - - - - - - -
22/10:26am 25.6 ESE 16 - 1018.5 - - - - - - - - -
22/10:00am 25.8 E 16 19 1018.7 - - - - - - - - -
22/09:30am 25.6 E 16 19 1018.8 - - - - - - - - -
22/09:26am 25.6 ESE 15 - 1018.8 - - - - - - - - -
22/09:00am 25.5 ESE 16 19 1018.7 - - - - - - - - -
22/08:30am 25.4 E 17 19 1018.5 - - - - - - - - -
22/08:26am 25.5 E 17 - 1018.6 - - - - - - - - -
22/08:00am 25.4 ESE 16 18 1018.3 - - - - - - - - -
22/07:30am 25.1 ESE 16 19 1018.1 - - - - - - - - -
22/07:26am 25.1 ESE 16 - 1018.2 - - - - - - - - -
22/07:00am 25.0 E 16 19 1018.0 - - - - - - - - -
22/06:30am 25.1 ESE 16 18 1017.9 - - - - - - - - -
22/06:26am 24.9 ESE 15 - 1017.9 - - - - - - - - -
22/06:00am 24.8 ESE 14 17 1017.7 - - - - - - - - -
22/05:30am 24.9 E 13 16 1017.5 - - - - - - - - -
22/05:26am 24.9 E 13 - 1017.6 - - - - - - - - -
22/05:00am 24.8 E 13 16 1017.2 - - - - - - - - -
22/04:30am 24.8 E 14 16 1016.8 - - - - - - - - -
22/04:26am 24.9 E 14 - 1016.9 - - - - - - - - -
22/04:00am 24.8 E 13 16 1016.7 - - - - - - - - -
22/03:30am 24.8 E 12 15 1016.9 - - - - - - - - -
22/03:26am 24.8 E 12 - 1016.9 - - - - - - - - -
22/03:00am 24.8 E 13 17 1016.9 - - - - - - - - -
22/02:30am 24.9 E 13 15 1016.9 - - - - - - - - -
22/02:26am 24.8 E 13 - 1017.1 - - - - - - - - -
22/02:00am 24.8 ENE 16 18 1017.3 - - - - - - - - -
22/01:30am 24.8 E 17 21 1017.4 - - - - - - - - -
22/01:26am 24.9 E 17 - 1017.6 - - - - - - - - -
22/01:00am 24.9 E 17 21 1017.9 - - - - - - - - -
22/12:30am 25.0 E 18 21 1017.9 - - - - - - - - -
22/12:26am 24.9 E 18 - 1018.1 - - - - - - - - -
22/12:00am 25.0 E 17 21 1018.0 - - - - - - - - -
 
Date/Time
EST
Temp

°C
Wind Pressure Rain
since 9am
mm
Weather Cloud Vis
km
Sea
Height
m
Swell
Dir
 
Speed
knots
Gust
knots
hPa Trend Height
m
Period
s
Dir
21/11:30pm 25.0 E 18 21 1018.2 - - - - - - - - -
21/11:26pm 25.1 E 18 - 1018.3 - - - - - - - - -
21/11:00pm 25.1 E 18 21 1018.2 - - - - - - - - -
21/10:30pm 25.1 E 17 19 1018.4 - - - - - - - - -
21/10:26pm 25.2 E 17 - 1018.5 - - - - - - - - -
21/10:00pm 25.2 E 16 19 1018.6 - - - - - - - - -
21/09:30pm 25.2 E 16 19 1018.5 - - - - - - - - -
21/09:26pm 25.2 E 16 - 1018.6 - - - - - - - - -
21/09:00pm 25.3 E 15 17 1018.5 - - - - - - - - -
21/08:30pm 25.1 ESE 14 17 1018.6 - - - - - - - - -
21/08:26pm 25.0 SE 13 - 1018.7 - - - - - - - - -
21/08:00pm 25.1 ESE 14 16 1018.4 - - - - - - - - -
21/07:30pm 25.1 ESE 16 19 1018.3 - - - - - - - - -
21/07:26pm 25.1 ESE 15 - 1018.4 - - - - - - - - -
21/07:00pm 25.1 ESE 15 19 1018.0 - - - - - - - - -
21/06:30pm 25.2 ESE 16 18 1017.7 - - - - - - - - -
21/06:26pm 25.2 ESE 15 - 1017.8 - - - - - - - - -
21/06:00pm 25.2 ESE 15 18 1017.6 - - - - - - - - -
21/05:30pm 25.3 ESE 16 19 1017.4 - - - - - - - - -
21/05:26pm 25.2 ESE 16 - 1017.4 - - - - - - - - -
21/05:00pm 25.4 ESE 16 19 1016.9 - - - - - - - - -
21/04:30pm 25.5 ESE 17 19 1016.8 - - - - - - - - -
21/04:26pm 25.4 ESE 16 - 1016.9 - - - - - - - - -
21/04:00pm 25.4 ESE 17 21 1016.4 - - - - - - - - -
21/03:30pm 25.4 ESE 18 22 1016.4 - - - - - - - - -
21/03:26pm 25.5 ESE 17 - 1016.4 - - - - - - - - -
21/03:00pm 25.5 ESE 15 19 1016.4 - - - - - - - - -
21/02:30pm 25.7 ESE 15 18 1016.3 - - - - - - - - -
21/02:26pm 25.9 ESE 16 - 1016.4 - - - - - - - - -
21/02:00pm 25.8 ESE 16 17 1016.4 - - - - - - - - -
21/01:30pm 25.9 ESE 14 17 1016.7 - - - - - - - - -
21/01:26pm 25.6 E 14 - 1016.9 - - - - - - - - -
21/01:00pm 26.0 ESE 14 16 1017.0 - - - - - - - - -

Other Formats:

Comma delimited format used in spreadsheet applications
http://www.bom.gov.au/fwo/IDQ60701/IDQ60701.94379.axf

JavaScript Object Notation format (JSON) in row-major order
http://www.bom.gov.au/fwo/IDQ60701/IDQ60701.94379.json